Time;durP1;ratioP1;P1;durP2;ratioP2;P2;SDS_P1;SDS_P2;PMS_P1;PMS_P2;Temp;Humidity;BMP_temperature;BMP_pressure;BME280_temperature;BME280_humidity;BME280_pressure;Samples;Min_cycle;Max_cycle;Signal;HPM_P1;HPM_P2
2024/01/15 00:00:07;;;;;;;7.20;6.57;;;0.80;99.90;;;;;;5028199;28;20032;-78
2024/01/15 00:02:33;;;;;;;7.40;6.70;;;0.80;99.90;;;;;;5013482;28;20036;-77
2024/01/15 00:04:58;;;;;;;6.93;6.28;;;0.90;99.90;;;;;;5044810;28;20071;-80
2024/01/15 00:07:24;;;;;;;8.23;6.30;;;0.80;99.90;;;;;;5029331;28;20127;-80
2024/01/15 00:09:50;;;;;;;6.68;6.05;;;1.40;99.90;;;;;;5029376;28;20045;-81
2024/01/15 00:12:15;;;;;;;7.60;6.90;;;1.60;99.90;;;;;;5028286;28;20057;-80
2024/01/15 00:14:42;;;;;;;6.47;5.97;;;0.80;99.90;;;;;;5045787;28;20037;-78
2024/01/15 00:17:07;;;;;;;6.82;5.55;;;1.00;99.90;;;;;;5043557;28;20053;-77
2024/01/15 00:19:33;;;;;;;6.03;5.55;;;0.80;99.90;;;;;;5046322;28;20079;-79
2024/01/15 00:21:59;;;;;;;6.22;5.18;;;0.90;99.90;;;;;;5044619;28;20053;-78
2024/01/15 00:24:25;;;;;;;9.73;5.60;;;1.60;99.90;;;;;;5029227;28;20029;-78
2024/01/15 00:26:50;;;;;;;7.80;5.93;;;1.10;99.90;;;;;;5045277;28;20436;-78
2024/01/15 00:29:16;;;;;;;8.50;6.40;;;1.00;99.90;;;;;;5028716;28;20041;-78
2024/01/15 00:31:42;;;;;;;5.85;5.30;;;0.90;99.90;;;;;;5045151;28;20059;-78
2024/01/15 00:34:08;;;;;;;8.65;5.40;;;1.40;99.90;;;;;;5011949;28;20075;-79
2024/01/15 00:36:33;;;;;;;5.60;5.10;;;1.00;99.90;;;;;;5045314;28;20076;-77
2024/01/15 00:38:59;;;;;;;5.20;4.90;;;1.00;99.90;;;;;;5044017;28;20068;-78
2024/01/15 00:41:27;;;;;;;6.13;5.72;;;1.60;99.90;;;;;;5029301;28;20094;-77
2024/01/15 00:43:53;;;;;;;9.55;6.65;;;1.10;99.90;;;;;;5027913;28;20048;-78
2024/01/15 00:46:19;;;;;;;7.93;6.88;;;1.10;99.90;;;;;;5011625;28;20040;-79
2024/01/15 00:48:45;;;;;;;7.13;6.50;;;1.20;99.90;;;;;;5027779;28;20041;-77
2024/01/15 00:51:10;;;;;;;10.32;7.70;;;1.20;99.90;;;;;;5008246;28;20111;-78
2024/01/15 00:53:36;;;;;;;7.55;6.95;;;1.20;99.90;;;;;;5027750;28;20041;-78
2024/01/15 00:56:03;;;;;;;8.32;7.90;;;1.20;99.90;;;;;;5010906;28;20041;-77
2024/01/15 00:58:28;;;;;;;10.43;8.23;;;1.20;99.90;;;;;;5029310;28;20095;-78
2024/01/15 01:00:55;;;;;;;7.97;7.30;;;1.20;99.90;;;;;;5043575;28;20049;-77
2024/01/15 01:03:21;;;;;;;8.07;7.57;;;1.10;99.90;;;;;;5012349;28;20056;-78
2024/01/15 01:05:49;;;;;;;8.43;7.82;;;1.10;99.90;;;;;;5027602;28;20037;-77
2024/01/15 01:08:15;;;;;;;10.68;9.65;;;1.20;99.90;;;;;;5044180;28;20159;-77
2024/01/15 01:10:42;;;;;;;9.73;8.95;;;1.40;99.90;;;;;;5011699;28;20052;-78
2024/01/15 01:13:08;;;;;;;8.38;7.78;;;1.10;99.90;;;;;;5010649;28;20040;-77
2024/01/15 01:15:34;;;;;;;10.15;9.27;;;1.20;99.90;;;;;;5012088;28;20047;-78
2024/01/15 01:18:00;;;;;;;10.43;9.35;;;1.10;99.90;;;;;;5026813;28;20065;-78
2024/01/15 01:20:26;;;;;;;11.23;10.38;;;1.30;99.90;;;;;;5028371;28;20137;-78
2024/01/15 01:22:51;;;;;;;10.73;10.15;;;1.10;99.90;;;;;;5011489;28;20045;-78
2024/01/15 01:25:17;;;;;;;11.65;10.52;;;1.10;99.90;;;;;;5010508;28;20060;-79
2024/01/15 01:27:43;;;;;;;11.50;10.60;;;1.10;99.90;;;;;;5028469;28;20055;-79
2024/01/15 01:30:09;;;;;;;11.48;10.88;;;1.10;99.90;;;;;;5010240;28;20144;-77
2024/01/15 01:32:35;;;;;;;11.80;11.20;;;1.10;99.90;;;;;;5028217;28;20048;-78
2024/01/15 01:35:00;;;;;;;10.95;10.25;;;1.10;99.90;;;;;;5043235;28;20496;-78
2024/01/15 01:37:26;;;;;;;10.32;9.65;;;1.10;99.90;;;;;;5011430;28;20041;-78
2024/01/15 01:39:52;;;;;;;11.98;11.18;;;1.20;99.90;;;;;;5011947;28;20049;-78
2024/01/15 01:42:18;;;;;;;11.70;10.80;;;1.60;99.90;;;;;;4994372;28;20052;-78
2024/01/15 01:44:43;;;;;;;14.93;11.50;;;1.30;99.90;;;;;;5027838;28;20036;-78
2024/01/15 01:47:09;;;;;;;11.48;10.88;;;1.40;99.90;;;;;;5042659;28;20045;-78
2024/01/15 01:49:36;;;;;;;12.82;12.02;;;1.60;99.90;;;;;;5011588;28;20136;-80
2024/01/15 01:52:04;;;;;;;21.40;20.40;;;1.20;99.90;;;;;;5026565;28;20071;-78
2024/01/15 01:54:32;;;;;;;24.52;23.08;;;1.20;99.90;;;;;;5044209;28;20230;-79
2024/01/15 01:56:58;;;;;;;27.13;26.05;;;1.10;99.90;;;;;;5027511;28;20060;-78
2024/01/15 01:59:27;;;;;;;27.02;25.52;;;1.40;99.90;;;;;;5026544;28;20040;-78
2024/01/15 02:01:54;;;;;;;30.20;28.67;;;1.00;99.90;;;;;;5043431;28;20044;-80
2024/01/15 02:04:24;;;;;;;28.00;26.40;;;1.00;99.90;;;;;;5042940;28;20067;-77
2024/01/15 02:06:50;;;;;;;26.85;25.48;;;1.00;99.90;;;;;;5044383;28;20060;-78
2024/01/15 02:09:20;;;;;;;25.73;24.73;;;1.00;99.90;;;;;;5009919;28;20033;-78
2024/01/15 02:11:49;;;;;;;26.45;24.92;;;0.70;99.90;;;;;;5043560;28;20056;-78
2024/01/15 02:14:15;;;;;;;26.02;24.77;;;0.90;99.90;;;;;;5042932;28;20124;-79
2024/01/15 02:16:41;;;;;;;28.30;27.10;;;0.90;99.90;;;;;;5042927;28;20416;-79
2024/01/15 02:19:06;;;;;;;27.48;26.40;;;1.30;99.90;;;;;;5042529;28;20044;-79
2024/01/15 02:21:32;;;;;;;26.30;25.27;;;0.90;99.90;;;;;;5041989;28;20037;-79
2024/01/15 02:23:58;;;;;;;27.35;26.15;;;0.90;99.90;;;;;;5027293;28;20037;-79
2024/01/15 02:26:24;;;;;;;26.13;24.85;;;0.80;99.90;;;;;;5026131;28;20032;-78
2024/01/15 02:28:50;;;;;;;23.20;22.33;;;1.30;99.90;;;;;;5027036;28;20073;-77
2024/01/15 02:31:16;;;;;;;23.75;22.95;;;0.90;99.90;;;;;;5009782;28;20512;-78
2024/01/15 02:33:43;;;;;;;22.77;21.98;;;0.90;99.90;;;;;;5042708;28;20037;-78
2024/01/15 02:36:09;;;;;;;25.40;24.20;;;0.90;99.90;;;;;;5010893;28;20420;-78
2024/01/15 02:38:35;;;;;;;26.50;25.60;;;1.00;99.90;;;;;;5041868;28;20044;-78
2024/01/15 02:41:00;;;;;;;28.15;27.20;;;1.40;99.90;;;;;;5010997;28;20044;-78
2024/01/15 02:43:26;;;;;;;29.20;28.15;;;0.80;99.90;;;;;;5025399;28;20108;-79
2024/01/15 02:45:52;;;;;;;30.20;29.00;;;0.80;99.90;;;;;;5010353;28;20059;-80
2024/01/15 02:48:17;;;;;;;27.83;26.83;;;1.20;99.90;;;;;;5042040;28;20049;-79
2024/01/15 02:50:43;;;;;;;28.90;27.90;;;0.80;99.90;;;;;;5026319;28;20076;-76
2024/01/15 02:53:09;;;;;;;28.58;27.35;;;0.80;99.90;;;;;;5026946;28;20044;-78
2024/01/15 02:55:35;;;;;;;27.58;26.58;;;0.80;99.90;;;;;;5008796;28;20207;-79
2024/01/15 02:58:00;;;;;;;27.13;26.17;;;0.80;99.90;;;;;;5010235;28;20040;-79
2024/01/15 03:00:26;;;;;;;26.38;25.27;;;0.80;99.90;;;;;;5025216;28;20041;-78
2024/01/15 03:02:52;;;;;;;27.42;25.80;;;0.80;99.90;;;;;;5043194;28;20083;-78
2024/01/15 03:05:17;;;;;;;28.20;27.10;;;0.90;99.90;;;;;;5009552;28;20045;-79
2024/01/15 03:07:43;;;;;;;27.52;26.52;;;1.00;99.90;;;;;;5042634;28;20033;-78
2024/01/15 03:10:09;;;;;;;25.92;25.02;;;0.90;99.90;;;;;;5026352;28;20048;-79
2024/01/15 03:12:35;;;;;;;21.70;20.80;;;1.10;99.90;;;;;;5025256;28;20048;-78
2024/01/15 03:15:01;;;;;;;26.02;24.73;;;1.70;99.90;;;;;;5042752;28;20041;-77
2024/01/15 03:17:27;;;;;;;24.40;23.10;;;1.00;99.90;;;;;;5040910;28;20586;-78
2024/01/15 03:19:53;;;;;;;26.23;24.35;;;1.10;99.90;;;;;;5027317;28;20045;-77
2024/01/15 03:22:18;;;;;;;26.58;25.20;;;1.10;99.90;;;;;;5042143;28;20049;-78
2024/01/15 03:24:44;;;;;;;23.38;22.27;;;1.40;99.90;;;;;;5009390;28;20090;-79
2024/01/15 03:27:10;;;;;;;22.88;21.88;;;1.00;99.90;;;;;;5026394;28;20053;-78
2024/01/15 03:29:36;;;;;;;22.98;22.08;;;1.00;99.90;;;;;;5009071;28;20040;-79
2024/01/15 03:32:01;;;;;;;19.83;19.02;;;1.00;99.90;;;;;;5013857;28;20056;-79
2024/01/15 03:34:27;;;;;;;21.63;20.77;;;1.00;99.90;;;;;;5028873;28;20037;-77
2024/01/15 03:36:53;;;;;;;23.13;22.08;;;1.10;99.90;;;;;;5013569;28;20135;-78
2024/01/15 03:39:19;;;;;;;24.23;23.23;;;1.10;99.90;;;;;;5013479;28;20063;-80
2024/01/15 03:41:44;;;;;;;23.23;22.42;;;1.10;99.90;;;;;;5045674;28;20792;-79
2024/01/15 03:44:10;;;;;;;25.65;24.65;;;1.10;99.90;;;;;;5045932;28;20045;-80
2024/01/15 03:46:36;;;;;;;23.70;22.67;;;1.00;99.90;;;;;;5029112;28;20048;-80
2024/01/15 03:49:02;;;;;;;26.25;25.00;;;1.10;99.90;;;;;;5029517;28;20056;-79
2024/01/15 03:51:27;;;;;;;21.88;21.08;;;1.40;99.90;;;;;;5028970;28;20076;-78
2024/01/15 03:53:53;;;;;;;23.67;22.58;;;1.10;99.90;;;;;;5013832;28;20044;-78
2024/01/15 03:56:19;;;;;;;21.55;20.75;;;1.10;99.90;;;;;;5028879;28;20069;-76
2024/01/15 03:58:45;;;;;;;23.45;22.45;;;1.10;99.90;;;;;;5029537;28;20045;-78
2024/01/15 04:01:11;;;;;;;21.65;20.60;;;1.10;99.90;;;;;;5028981;28;20069;-78
2024/01/15 04:03:37;;;;;;;22.30;21.35;;;1.10;99.90;;;;;;5029092;28;20052;-79
2024/01/15 04:06:03;;;;;;;24.92;23.80;;;1.10;99.90;;;;;;5029019;28;20048;-79
2024/01/15 04:08:29;;;;;;;24.05;22.95;;;1.10;99.90;;;;;;5012240;28;20049;-78
2024/01/15 04:10:55;;;;;;;22.15;21.35;;;1.10;99.90;;;;;;5042873;28;20056;-78
2024/01/15 04:13:21;;;;;;;23.27;22.17;;;1.10;99.90;;;;;;5041321;28;20030;-78
2024/01/15 04:15:47;;;;;;;20.27;19.48;;;1.10;99.90;;;;;;5010043;28;20037;-78
2024/01/15 04:18:13;;;;;;;22.92;21.60;;;1.10;99.90;;;;;;5008660;28;20168;-77
2024/01/15 04:20:38;;;;;;;18.50;17.08;;;1.30;99.90;;;;;;5025694;28;20064;-77
2024/01/15 04:23:05;;;;;;;17.90;17.10;;;1.20;99.90;;;;;;5026005;28;20147;-79
2024/01/15 04:25:30;;;;;;;18.70;18.00;;;1.30;99.90;;;;;;5024437;28;20056;-77
2024/01/15 04:27:56;;;;;;;18.60;17.95;;;1.30;99.90;;;;;;5008025;28;20059;-78
2024/01/15 04:30:22;;;;;;;19.25;18.35;;;1.30;99.90;;;;;;5006662;28;20088;-78
2024/01/15 04:32:48;;;;;;;20.52;19.83;;;1.20;99.90;;;;;;5008350;28;20034;-79
2024/01/15 04:35:14;;;;;;;21.77;20.67;;;1.80;99.90;;;;;;5007599;28;20046;-80
2024/01/15 04:37:40;;;;;;;22.23;21.27;;;1.20;99.90;;;;;;5042395;28;20045;-79
2024/01/15 04:40:07;;;;;;;20.77;19.95;;;1.30;99.90;;;;;;5009230;28;20052;-77
2024/01/15 04:42:33;;;;;;;20.40;19.60;;;1.30;99.90;;;;;;5040866;28;20045;-77
2024/01/15 04:44:59;;;;;;;20.60;19.77;;;1.20;99.90;;;;;;5006111;28;20073;-78
2024/01/15 04:47:25;;;;;;;22.40;21.40;;;1.30;99.90;;;;;;5013297;28;20049;-78
2024/01/15 04:49:51;;;;;;;24.05;22.55;;;1.30;99.90;;;;;;5026000;28;20045;-78
2024/01/15 04:52:16;;;;;;;24.63;23.48;;;1.20;99.90;;;;;;5024676;28;20544;-78
2024/01/15 04:54:42;;;;;;;25.45;24.38;;;1.10;99.90;;;;;;5025415;28;20045;-79
2024/01/15 04:57:08;;;;;;;26.45;25.35;;;1.10;99.90;;;;;;5041779;28;20048;-80
2024/01/15 04:59:33;;;;;;;25.33;24.40;;;1.10;99.90;;;;;;5008228;28;20037;-77
2024/01/15 05:01:59;;;;;;;27.27;26.10;;;1.10;99.90;;;;;;5008596;28;20042;-79
2024/01/15 05:04:25;;;;;;;24.85;23.85;;;1.10;99.90;;;;;;5007484;28;20033;-80
2024/01/15 05:06:51;;;;;;;24.38;23.42;;;1.20;99.90;;;;;;5022164;28;20041;-77
2024/01/15 05:09:17;;;;;;;26.38;24.52;;;1.10;99.90;;;;;;5007502;28;20041;-78
2024/01/15 05:11:43;;;;;;;24.50;23.52;;;1.10;99.90;;;;;;5025218;28;20097;-78
2024/01/15 05:14:09;;;;;;;24.23;23.17;;;1.10;99.90;;;;;;5024464;28;20045;-79
2024/01/15 05:16:38;;;;;;;24.40;23.40;;;1.10;99.90;;;;;;5008022;28;20033;-80
2024/01/15 05:19:04;;;;;;;24.23;23.00;;;1.10;99.90;;;;;;5041567;28;20056;-78
2024/01/15 05:21:30;;;;;;;25.05;23.90;;;1.10;99.90;;;;;;5040027;28;20041;-78
2024/01/15 05:23:55;;;;;;;24.40;23.33;;;1.00;99.90;;;;;;5025412;28;20069;-78
2024/01/15 05:26:21;;;;;;;27.45;26.08;;;1.30;99.90;;;;;;5040236;28;20540;-80
2024/01/15 05:28:47;;;;;;;27.58;26.38;;;0.90;99.90;;;;;;5008665;28;20071;-77
2024/01/15 05:31:13;;;;;;;27.52;26.38;;;0.90;99.90;;;;;;5007796;28;20041;-77
2024/01/15 05:33:38;;;;;;;28.48;27.33;;;0.90;99.90;;;;;;5023711;28;20056;-77
2024/01/15 05:36:05;;;;;;;28.70;27.58;;;1.00;99.90;;;;;;5008709;28;20037;-78
2024/01/15 05:38:30;;;;;;;29.95;28.83;;;0.80;99.90;;;;;;5023473;28;20041;-79
2024/01/15 05:40:56;;;;;;;27.00;25.83;;;1.20;99.90;;;;;;5008798;28;20046;-79
2024/01/15 05:43:22;;;;;;;28.85;27.38;;;0.80;99.90;;;;;;5023437;28;20120;-79
2024/01/15 05:45:47;;;;;;;29.40;28.05;;;1.00;99.90;;;;;;5008967;28;20113;-79
2024/01/15 05:48:13;;;;;;;27.73;26.63;;;0.80;99.90;;;;;;5023460;28;20468;-79
2024/01/15 05:50:39;;;;;;;28.15;27.05;;;0.80;99.90;;;;;;5024022;28;20037;-79
2024/01/15 05:53:05;;;;;;;29.15;27.75;;;0.80;99.90;;;;;;5023973;28;20072;-79
2024/01/15 05:55:30;;;;;;;26.48;25.15;;;0.90;99.90;;;;;;5039570;28;20041;-79
2024/01/15 05:57:56;;;;;;;27.33;26.33;;;0.90;99.90;;;;;;5025067;28;20053;-77
2024/01/15 06:00:22;;;;;;;27.25;25.95;;;0.90;99.90;;;;;;5006299;28;20033;-80
2024/01/15 06:02:48;;;;;;;28.58;26.98;;;0.90;99.90;;;;;;5024393;28;20041;-79
2024/01/15 06:05:13;;;;;;;28.95;27.55;;;1.00;99.90;;;;;;5040063;28;20037;-78
2024/01/15 06:07:39;;;;;;;27.23;26.05;;;1.00;99.90;;;;;;5023787;28;20087;-78
2024/01/15 06:10:05;;;;;;;27.20;26.08;;;1.00;99.90;;;;;;5024360;28;20037;-81
2024/01/15 06:12:32;;;;;;;23.25;22.25;;;1.00;99.90;;;;;;5023096;28;20045;-78
2024/01/15 06:14:58;;;;;;;28.30;26.88;;;0.90;99.90;;;;;;5008279;28;20049;-80
2024/01/15 06:17:23;;;;;;;28.73;27.20;;;0.90;99.90;;;;;;5006448;28;20041;-78
2024/01/15 06:19:49;;;;;;;26.98;25.75;;;1.90;99.90;;;;;;5040585;28;20045;-81
2024/01/15 06:22:15;;;;;;;27.05;26.02;;;1.70;99.90;;;;;;5023154;28;20154;-79
2024/01/15 06:24:41;;;;;;;29.33;27.92;;;0.70;99.90;;;;;;5039963;28;20049;-80
2024/01/15 06:27:06;;;;;;;27.98;26.88;;;0.60;99.90;;;;;;5007096;28;20444;-79
2024/01/15 06:29:32;;;;;;;29.52;27.95;;;0.80;99.90;;;;;;5022922;28;20129;-80
2024/01/15 06:31:58;;;;;;;28.08;26.75;;;1.40;99.90;;;;;;5007632;28;20037;-79
2024/01/15 06:34:24;;;;;;;30.00;28.80;;;0.50;99.90;;;;;;5019859;28;20054;-80
2024/01/15 06:36:49;;;;;;;30.88;29.20;;;0.50;99.90;;;;;;5011674;28;20053;-80
2024/01/15 06:39:15;;;;;;;30.95;29.75;;;0.50;99.90;;;;;;5006707;28;20073;-77
2024/01/15 06:41:43;;;;;;;30.77;29.25;;;0.50;99.90;;;;;;5023408;28;20034;-81
2024/01/15 06:44:10;;;;;;;32.47;31.00;;;0.50;99.90;;;;;;5016776;28;20045;-82
2024/01/15 06:46:36;;;;;;;32.42;31.30;;;0.50;99.90;;;;;;5023024;28;20042;-82
2024/01/15 06:49:02;;;;;;;31.60;30.23;;;0.50;99.90;;;;;;5039781;28;20041;-80
2024/01/15 06:51:29;;;;;;;31.23;30.02;;;0.50;99.90;;;;;;5006252;28;20559;-79
2024/01/15 06:53:55;;;;;;;30.55;28.70;;;0.50;99.90;;;;;;5007604;28;20669;-81
2024/01/15 06:56:20;;;;;;;30.15;28.92;;;0.50;99.90;;;;;;5005776;28;20041;-81
2024/01/15 06:58:46;;;;;;;29.63;28.23;;;0.50;99.90;;;;;;5023680;28;20095;-80
2024/01/15 07:01:12;;;;;;;29.67;28.55;;;0.40;99.90;;;;;;5006465;28;20080;-78
2024/01/15 07:03:38;;;;;;;27.95;26.70;;;0.40;99.90;;;;;;5039835;28;20080;-81
2024/01/15 07:06:04;;;;;;;28.35;27.23;;;0.40;99.90;;;;;;5029946;28;20469;-79
2024/01/15 07:08:30;;;;;;;27.15;26.05;;;0.40;99.90;;;;;;5045321;28;20071;-79
2024/01/15 07:10:55;;;;;;;26.85;25.77;;;0.70;99.90;;;;;;5030240;28;20068;-77
2024/01/15 07:13:21;;;;;;;27.20;25.85;;;0.60;99.90;;;;;;5012269;28;20048;-79
2024/01/15 07:15:47;;;;;;;25.55;24.65;;;0.40;99.90;;;;;;5013362;28;20043;-80
2024/01/15 07:18:13;;;;;;;27.58;26.17;;;0.50;99.90;;;;;;5018876;28;20095;-79
2024/01/15 07:20:38;;;;;;;26.27;25.17;;;1.00;99.90;;;;;;5045681;28;20049;-80
2024/01/15 07:23:04;;;;;;;26.42;25.05;;;0.40;99.90;;;;;;5013537;28;20132;-79
2024/01/15 07:25:30;;;;;;;27.95;26.55;;;0.50;99.90;;;;;;5045215;28;20041;-79
2024/01/15 07:27:55;;;;;;;26.65;25.35;;;0.40;99.90;;;;;;5030109;28;20045;-79
2024/01/15 07:30:21;;;;;;;27.08;25.67;;;0.40;99.90;;;;;;5044741;28;20041;-79
2024/01/15 07:32:47;;;;;;;24.65;23.52;;;1.20;99.90;;;;;;5046131;28;20041;-81
2024/01/15 07:35:15;;;;;;;25.08;24.00;;;0.40;99.90;;;;;;5045070;28;20038;-78
2024/01/15 07:37:41;;;;;;;26.13;24.77;;;0.40;99.90;;;;;;5045020;28;20517;-81
2024/01/15 07:40:08;;;;;;;24.85;23.77;;;0.80;99.90;;;;;;5045648;28;20045;-79
2024/01/15 07:42:34;;;;;;;24.23;23.02;;;0.50;99.90;;;;;;5044972;28;20049;-78
2024/01/15 07:45:00;;;;;;;23.48;22.40;;;0.90;99.90;;;;;;5029690;28;20084;-78
2024/01/15 07:47:27;;;;;;;25.20;23.58;;;0.50;99.90;;;;;;5011697;28;20367;-77
2024/01/15 07:49:53;;;;;;;23.55;22.55;;;0.50;99.90;;;;;;5013523;28;20045;-80
2024/01/15 07:52:19;;;;;;;23.50;22.33;;;0.50;99.90;;;;;;5045254;28;20064;-80
2024/01/15 07:54:44;;;;;;;26.88;24.50;;;1.40;99.90;;;;;;5012881;28;20055;-79
2024/01/15 07:57:10;;;;;;;22.15;21.30;;;0.40;99.90;;;;;;5029512;28;20046;-81
2024/01/15 07:59:36;;;;;;;23.33;22.23;;;0.90;99.90;;;;;;5044889;28;20080;-80
2024/01/15 08:02:03;;;;;;;24.23;23.25;;;0.50;99.90;;;;;;5011649;28;20586;-80
2024/01/15 08:04:28;;;;;;;24.65;23.17;;;0.50;99.90;;;;;;5012105;28;20143;-80
2024/01/15 08:06:54;;;;;;;24.52;23.08;;;0.50;99.90;;;;;;5013534;28;20038;-78
2024/01/15 08:09:20;;;;;;;23.75;22.40;;;0.60;99.90;;;;;;5012311;28;20049;-80
2024/01/15 08:11:46;;;;;;;24.77;23.42;;;0.40;99.90;;;;;;5029078;28;20099;-80
2024/01/15 08:14:13;;;;;;;24.10;23.05;;;0.50;99.90;;;;;;5044838;28;20108;-81
2024/01/15 08:16:39;;;;;;;25.05;23.58;;;0.50;99.90;;;;;;5038647;28;20080;-78
2024/01/15 08:19:05;;;;;;;25.42;24.42;;;0.40;99.90;;;;;;5017885;28;20046;-77
2024/01/15 08:21:31;;;;;;;25.48;24.02;;;0.40;99.90;;;;;;5024893;28;20053;-80
2024/01/15 08:24:05;;;;;;;26.55;25.20;;;0.50;99.90;;;;;;5014918;28;20041;-81
2024/01/15 08:26:32;;;;;;;25.65;24.75;;;0.50;99.90;;;;;;5009681;28;20048;-81
2024/01/15 08:28:57;;;;;;;25.70;24.77;;;0.50;99.90;;;;;;5000689;28;20124;-79
2024/01/15 08:31:23;;;;;;;27.20;25.95;;;1.30;99.90;;;;;;5028554;28;20096;-78
2024/01/15 08:33:49;;;;;;;25.67;24.67;;;0.50;99.90;;;;;;5024482;28;20042;-79
2024/01/15 08:36:15;;;;;;;25.77;24.60;;;0.50;99.90;;;;;;5007098;28;20049;-81
2024/01/15 08:38:40;;;;;;;24.50;23.30;;;0.50;99.90;;;;;;4991639;28;20041;-77
2024/01/15 08:41:08;;;;;;;24.48;23.58;;;0.60;99.90;;;;;;5016000;28;20640;-79
2024/01/15 08:43:34;;;;;;;24.98;23.80;;;0.60;99.90;;;;;;4991747;28;20045;-81
2024/01/15 08:46:00;;;;;;;21.98;21.15;;;0.60;99.90;;;;;;5005486;28;20072;-80
2024/01/15 08:48:27;;;;;;;23.77;22.88;;;0.60;99.90;;;;;;5004636;28;20050;-78
2024/01/15 08:50:56;;;;;;;23.27;22.05;;;0.60;99.90;;;;;;5023610;28;20042;-79
2024/01/15 08:53:22;;;;;;;24.00;22.77;;;1.00;99.90;;;;;;5015135;28;20057;-80
2024/01/15 08:55:49;;;;;;;21.52;20.02;;;0.70;99.90;;;;;;5006841;28;20061;-78
2024/01/15 08:58:14;;;;;;;20.23;19.42;;;1.10;99.90;;;;;;5042190;28;20131;-78
2024/01/15 09:00:40;;;;;;;19.02;18.23;;;1.60;99.90;;;;;;5021844;28;20041;-80
2024/01/15 09:03:06;;;;;;;20.42;19.63;;;0.80;99.90;;;;;;4991510;28;20053;-78
2024/01/15 09:05:32;;;;;;;19.20;18.30;;;0.90;99.90;;;;;;5024396;28;20509;-78
2024/01/15 09:07:58;;;;;;;19.90;18.60;;;1.30;99.90;;;;;;5039365;28;20088;-78
2024/01/15 09:10:24;;;;;;;18.85;17.85;;;1.00;99.90;;;;;;5009839;28;20038;-79
2024/01/15 09:12:49;;;;;;;18.77;17.77;;;1.00;99.90;;;;;;5024527;28;20049;-78
2024/01/15 09:15:15;;;;;;;18.15;17.20;;;1.00;99.90;;;;;;5011560;28;20037;-79
2024/01/15 09:17:42;;;;;;;20.88;19.40;;;1.10;99.90;;;;;;5026258;28;20041;-79
2024/01/15 09:20:09;;;;;;;20.13;19.17;;;1.20;99.90;;;;;;5017766;28;20045;-76
2024/01/15 09:22:38;;;;;;;20.98;19.13;;;1.20;99.90;;;;;;5032446;28;20049;-78
2024/01/15 09:25:04;;;;;;;17.63;16.58;;;1.20;99.90;;;;;;5006936;28;20113;-79
2024/01/15 09:27:30;;;;;;;19.25;18.20;;;1.30;99.90;;;;;;4991116;28;20054;-79
2024/01/15 09:29:56;;;;;;;17.70;16.80;;;1.30;99.90;;;;;;4990539;28;20104;-80
2024/01/15 09:32:28;;;;;;;16.60;15.63;;;1.40;99.90;;;;;;4989588;28;20045;-78
2024/01/15 09:34:54;;;;;;;16.08;15.13;;;1.50;99.90;;;;;;4990590;28;20538;-79
2024/01/15 09:37:19;;;;;;;17.67;16.50;;;1.50;99.90;;;;;;4991123;28;20037;-80
2024/01/15 09:39:46;;;;;;;18.45;17.25;;;1.50;99.90;;;;;;5008041;28;20098;-80
2024/01/15 09:42:12;;;;;;;17.05;16.10;;;1.50;99.90;;;;;;5007166;28;20109;-79
2024/01/15 09:44:37;;;;;;;18.48;17.52;;;1.40;99.90;;;;;;5007947;28;20073;-79
2024/01/15 09:47:05;;;;;;;19.73;18.85;;;1.50;99.90;;;;;;5006930;28;20077;-79
2024/01/15 09:49:31;;;;;;;19.58;18.65;;;1.30;99.90;;;;;;5007748;28;20490;-78
2024/01/15 09:51:58;;;;;;;19.77;18.55;;;1.80;99.90;;;;;;5023094;28;20037;-78
2024/01/15 09:54:24;;;;;;;19.70;18.33;;;1.40;99.90;;;;;;5024565;28;20108;-79
2024/01/15 09:56:50;;;;;;;20.17;18.98;;;1.60;99.90;;;;;;5023732;28;20041;-78
2024/01/15 09:59:18;;;;;;;19.42;18.50;;;1.40;99.90;;;;;;4974708;28;20055;-80
2024/01/15 10:01:50;;;;;;;18.35;17.05;;;1.50;99.90;;;;;;5013661;28;20048;-79
2024/01/15 10:04:15;;;;;;;18.45;17.17;;;1.50;99.90;;;;;;5026439;28;20462;-80
2024/01/15 10:06:50;;;;;;;16.45;15.32;;;1.50;99.90;;;;;;5027814;28;20032;-79
2024/01/15 10:09:17;;;;;;;13.98;13.18;;;1.60;99.90;;;;;;5026835;28;20044;-80
2024/01/15 10:11:44;;;;;;;12.48;11.98;;;1.70;99.90;;;;;;5027053;28;20060;-78
2024/01/15 10:14:12;;;;;;;12.43;11.82;;;1.80;99.90;;;;;;5004460;28;20053;-79
2024/01/15 10:16:39;;;;;;;11.95;10.95;;;1.80;99.90;;;;;;4993411;28;20033;-78
2024/01/15 10:19:05;;;;;;;10.88;10.30;;;1.90;99.90;;;;;;4991318;28;20275;-80
2024/01/15 10:21:34;;;;;;;10.68;10.07;;;2.10;99.90;;;;;;4989394;28;20048;-78
2024/01/15 10:24:01;;;;;;;9.43;8.93;;;2.30;99.90;;;;;;5024350;28;20057;-78
2024/01/15 10:26:27;;;;;;;10.57;9.98;;;2.30;99.90;;;;;;5032548;28;20071;-78
2024/01/15 10:28:52;;;;;;;12.00;11.20;;;2.50;99.90;;;;;;5026615;28;20044;-77
2024/01/15 10:31:19;;;;;;;15.00;13.95;;;1.80;99.90;;;;;;5034489;28;20034;-78
2024/01/15 10:33:45;;;;;;;19.50;18.27;;;1.60;99.90;;;;;;5006657;28;20052;-77
2024/01/15 10:36:11;;;;;;;23.65;22.40;;;1.60;99.90;;;;;;4990942;28;20065;-78
2024/01/15 10:38:37;;;;;;;25.13;22.90;;;1.70;99.90;;;;;;5012512;28;20038;-79
2024/01/15 10:41:04;;;;;;;17.25;16.45;;;2.20;99.90;;;;;;4991467;28;20057;-79
2024/01/15 10:43:30;;;;;;;13.48;12.88;;;2.40;99.90;;;;;;4989975;28;20042;-79
2024/01/15 10:45:55;;;;;;;14.63;13.93;;;2.30;99.90;;;;;;4990753;28;20445;-77
2024/01/15 10:48:21;;;;;;;15.43;14.82;;;2.10;99.90;;;;;;5006429;28;20049;-79
2024/01/15 10:50:47;;;;;;;20.00;18.73;;;2.20;99.90;;;;;;4999625;28;20595;-79
2024/01/15 10:53:17;;;;;;;15.35;14.75;;;2.60;99.90;;;;;;5027271;28;20044;-78
2024/01/15 10:55:43;;;;;;;8.50;8.00;;;3.00;99.90;;;;;;4993216;28;20409;-78
2024/01/15 10:58:10;;;;;;;9.48;8.77;;;3.10;99.90;;;;;;5026646;28;20102;-80
2024/01/15 11:00:39;;;;;;;9.10;8.60;;;3.10;99.90;;;;;;5042302;28;20056;-77
2024/01/15 11:03:06;;;;;;;6.55;6.25;;;3.10;99.90;;;;;;5030136;28;20053;-78
2024/01/15 11:05:45;;;;;;;9.90;9.40;;;2.80;99.90;;;;;;5006863;28;20711;-77
2024/01/15 11:08:11;;;;;;;10.20;9.60;;;2.60;99.90;;;;;;5005954;28;20105;-79
2024/01/15 11:10:51;;;;;;;10.38;9.95;;;2.40;99.90;;;;;;5007205;28;20088;-78
2024/01/15 11:13:32;;;;;;;13.73;13.02;;;2.10;99.90;;;;;;5005371;28;20052;-78
2024/01/15 11:16:03;;;;;;;15.23;14.50;;;2.00;99.90;;;;;;5012105;28;20390;-79
2024/01/15 11:18:37;;;;;;;14.38;13.88;;;1.90;99.90;;;;;;5006369;28;20134;-78
2024/01/15 11:21:15;;;;;;;16.38;15.68;;;1.90;99.90;;;;;;4989275;28;20073;-78
2024/01/15 11:23:46;;;;;;;19.75;18.95;;;1.70;99.90;;;;;;5007480;28;20049;-77
2024/01/15 11:26:30;;;;;;;19.35;18.42;;;1.70;99.90;;;;;;5022441;28;20049;-78
2024/01/15 11:28:57;;;;;;;14.13;13.35;;;1.60;99.90;;;;;;5025352;28;20079;-79
2024/01/15 11:31:49;;;;;;;18.80;17.95;;;2.00;99.90;;;;;;5033399;28;20045;-78
2024/01/15 11:34:15;;;;;;;16.10;15.40;;;1.40;99.90;;;;;;5021013;28;20050;-78
2024/01/15 11:36:53;;;;;;;26.42;25.52;;;1.30;99.90;;;;;;5028136;28;20123;-77
2024/01/15 11:39:28;;;;;;;24.40;23.52;;;1.20;99.90;;;;;;5030927;28;20045;-80
2024/01/15 11:42:01;;;;;;;25.23;24.33;;;1.40;99.90;;;;;;5005899;28;20568;-78
2024/01/15 11:44:27;;;;;;;24.73;23.85;;;1.30;99.90;;;;;;4990286;28;20113;-77
2024/01/15 11:46:57;;;;;;;26.95;25.98;;;1.40;99.90;;;;;;5020237;28;20053;-78
2024/01/15 11:50:05;;;;;;;27.92;26.88;;;1.40;99.90;;;;;;5006030;28;20049;-78
2024/01/15 11:52:36;;;;;;;28.83;27.83;;;1.50;99.90;;;;;;5044679;28;20045;-77
2024/01/15 11:55:05;;;;;;;23.35;22.55;;;1.60;99.90;;;;;;5045732;28;20166;-78
2024/01/15 11:57:52;;;;;;;24.00;23.10;;;1.60;99.90;;;;;;5029681;28;20455;-78
2024/01/15 12:00:18;;;;;;;;;;;1.60;99.90;;;;;;5028562;28;20045;-76
2024/01/15 12:02:46;;;;;;;24.70;23.80;;;1.70;99.90;;;;;;5044998;28;19931;-76
2024/01/15 12:05:14;;;;;;;28.13;27.02;;;1.70;99.90;;;;;;5028776;28;20043;-77
2024/01/15 12:07:40;;;;;;;25.65;24.80;;;1.80;99.90;;;;;;5013187;28;20044;-79
2024/01/15 12:10:26;;;;;;;25.83;24.85;;;1.90;99.90;;;;;;5029329;28;20076;-77
2024/01/15 12:13:02;;;;;;;24.80;23.80;;;1.80;99.90;;;;;;5038223;28;20057;-77
2024/01/15 12:15:29;;;;;;;23.27;22.42;;;1.70;99.90;;;;;;5026052;28;20056;-77
2024/01/15 12:18:00;;;;;;;20.98;20.27;;;1.70;99.90;;;;;;5008720;28;20061;-76
2024/01/15 12:20:27;;;;;;;22.77;21.90;;;1.80;99.90;;;;;;5009065;28;20493;-77
2024/01/15 12:22:55;;;;;;;20.35;19.55;;;1.50;99.90;;;;;;5008185;28;20056;-77
2024/01/15 12:25:21;;;;;;;21.98;21.17;;;1.40;99.90;;;;;;4992206;28;20091;-77
2024/01/15 12:27:47;;;;;;;23.77;22.98;;;1.30;99.90;;;;;;5014944;28;20041;-77
2024/01/15 12:30:13;;;;;;;22.08;21.35;;;1.20;99.90;;;;;;5008027;28;20033;-77
2024/01/15 12:32:43;;;;;;;23.58;22.48;;;1.10;99.90;;;;;;5017510;28;20088;-78
2024/01/15 12:35:12;;;;;;;23.88;23.08;;;1.10;99.90;;;;;;4992105;28;20061;-77
2024/01/15 12:37:41;;;;;;;20.60;19.83;;;0.90;99.90;;;;;;5025216;28;20045;-78